Time;durP1;ratioP1;P1;durP2;ratioP2;P2;SDS_P1;SDS_P2;PMS_P1;PMS_P2;Temp;Humidity;BMP_temperature;BMP_pressure;BME280_temperature;BME280_humidity;BME280_pressure;Samples;Min_cycle;Max_cycle;Signal;HPM_P1;HPM_P2
2022/09/18 00:01:10;;;;;;;1.27;0.45;;;;;;;14.51;89.50;100052.31;4995246;28;20037;-67
2022/09/18 00:03:36;;;;;;;4.30;0.60;;;;;;;14.48;89.68;100040.31;5002993;28;20491;-67
2022/09/18 00:06:10;;;;;;;5.97;0.95;;;;;;;14.50;89.58;100048.06;5008822;28;20045;-67
2022/09/18 00:08:37;;;;;;;0.68;0.32;;;;;;;14.43;89.61;100041.53;5000978;28;20045;-67
2022/09/18 00:11:08;;;;;;;1.83;0.63;;;;;;;14.45;89.52;100043.84;4994485;28;20037;-67
2022/09/18 00:13:35;;;;;;;1.35;0.65;;;;;;;14.43;89.56;100057.78;5009426;28;20444;-67
2022/09/18 00:16:01;;;;;;;3.10;0.32;;;;;;;14.35;90.42;100050.84;5000406;28;20030;-67
2022/09/18 00:18:26;;;;;;;0.77;0.43;;;;;;;14.31;90.89;100049.31;4999995;28;20041;-67
2022/09/18 00:20:52;;;;;;;4.97;0.90;;;;;;;14.36;90.75;100049.66;5002078;28;20066;-67
2022/09/18 00:23:17;;;;;;;0.95;0.38;;;;;;;14.32;91.01;100048.91;4998068;28;20621;-67
2022/09/18 00:25:43;;;;;;;6.40;0.50;;;;;;;14.30;91.14;100042.38;5005126;28;20034;-67
2022/09/18 00:28:08;;;;;;;4.32;0.50;;;;;;;14.30;91.24;100048.53;5010019;28;20037;-67
2022/09/18 00:30:33;;;;;;;1.80;0.30;;;;;;;14.37;90.95;100064.00;4995809;28;20113;-67
2022/09/18 00:32:59;;;;;;;0.85;0.55;;;;;;;14.32;90.91;100056.28;4993459;28;20437;-67
2022/09/18 00:35:24;;;;;;;5.90;0.90;;;;;;;14.25;90.67;100059.75;4990355;28;20032;-67
2022/09/18 00:37:50;;;;;;;2.08;0.40;;;;;;;14.22;90.69;100068.69;4987974;28;20030;-67
2022/09/18 00:40:16;;;;;;;0.80;0.40;;;;;;;14.19;91.21;100063.25;4999140;28;20044;-67
2022/09/18 00:42:42;;;;;;;6.97;0.60;;;;;;;14.14;91.57;100052.84;5003658;28;20398;-67
2022/09/18 00:45:09;;;;;;;1.85;0.30;;;;;;;14.10;91.68;100071.81;5007628;28;20112;-67
2022/09/18 00:47:46;;;;;;;1.80;0.40;;;;;;;14.20;91.16;100067.53;5002916;28;20683;-67
2022/09/18 00:50:17;;;;;;;3.22;0.60;;;;;;;14.18;91.48;100053.59;5002702;28;20040;-67
2022/09/18 00:52:56;;;;;;;5.55;0.52;;;;;;;14.24;90.80;100065.59;5006461;28;20124;-67
2022/09/18 00:55:27;;;;;;;0.25;0.25;;;;;;;14.19;90.69;100065.97;4998916;28;20025;-67
2022/09/18 00:57:56;;;;;;;0.90;0.20;;;;;;;14.19;90.59;100064.03;4991275;28;20491;-67
2022/09/18 01:00:22;;;;;;;0.43;0.40;;;;;;;14.17;90.79;100063.66;4999309;28;20435;-67
2022/09/18 01:02:48;;;;;;;8.00;1.50;;;;;;;14.25;90.82;100062.47;4994167;28;20478;-67
2022/09/18 01:05:21;;;;;;;5.85;0.75;;;;;;;14.30;90.42;100061.34;5000627;28;20089;-67
2022/09/18 01:07:56;;;;;;;1.67;0.80;;;;;;;14.30;89.83;100064.78;4990708;28;20125;-67
2022/09/18 01:10:30;;;;;;;2.63;0.55;;;;;;;14.34;89.32;100072.91;4996472;28;20518;-67
2022/09/18 01:13:10;;;;;;;2.97;1.15;;;;;;;14.33;89.34;100064.00;4987305;28;20405;-67
2022/09/18 01:15:56;;;;;;;3.97;0.30;;;;;;;14.38;89.11;100074.44;4995146;28;20030;-67
2022/09/18 01:18:38;;;;;;;2.00;0.57;;;;;;;14.33;88.93;100074.06;4974715;28;20034;-67
2022/09/18 01:21:07;;;;;;;2.83;1.05;;;;;;;14.34;88.99;100067.50;4994542;28;20049;-67
2022/09/18 01:24:01;;;;;;;4.30;2.08;;;;;;;14.37;89.17;100067.47;5000171;28;20053;-67
2022/09/18 01:26:54;;;;;;;7.22;1.27;;;;;;;14.46;88.42;100061.63;4993656;28;20025;-67
2022/09/18 01:29:45;;;;;;;3.30;0.30;;;;;;;14.48;88.37;100058.53;4996405;28;20482;-67
2022/09/18 01:32:19;;;;;;;3.38;0.77;;;;;;;14.40;88.55;100063.97;4982644;28;20038;-67
2022/09/18 01:34:48;;;;;;;2.75;0.45;;;;;;;14.36;88.87;100063.22;4981459;28;20041;-67
2022/09/18 01:37:22;;;;;;;1.48;0.77;;;;;;;14.26;89.48;100049.72;4982899;28;20049;-67
2022/09/18 01:40:15;;;;;;;2.28;0.60;;;;;;;14.29;89.70;100051.66;4973915;28;20039;-67
2022/09/18 01:42:44;;;;;;;2.08;0.65;;;;;;;14.27;89.62;100054.75;4991600;28;20093;-67
2022/09/18 01:45:16;;;;;;;3.60;0.55;;;;;;;14.23;89.97;100053.97;4991414;28;20026;-67
2022/09/18 01:48:05;;;;;;;2.08;0.60;;;;;;;14.22;89.94;100059.78;4985131;28;20384;-67
2022/09/18 01:50:41;;;;;;;0.60;0.32;;;;;;;14.24;90.10;100054.75;4991512;28;20034;-67
2022/09/18 01:53:12;;;;;;;7.18;0.85;;;;;;;14.24;90.08;100063.66;5002967;28;20623;-67
2022/09/18 01:55:40;;;;;;;3.15;1.13;;;;;;;14.21;90.40;100066.34;4992349;28;20028;-67
2022/09/18 01:58:12;;;;;;;1.63;0.80;;;;;;;14.21;90.67;100061.72;4991101;28;20802;-67
2022/09/18 02:00:44;;;;;;;5.50;0.50;;;;;;;14.25;90.29;100062.47;4992929;28;20058;-67
2022/09/18 02:03:17;;;;;;;4.70;0.60;;;;;;;14.17;90.12;100062.88;5006161;28;20053;-67
2022/09/18 02:05:47;;;;;;;0.52;0.45;;;;;;;14.14;90.08;100061.75;4992616;28;20026;-67
2022/09/18 02:08:22;;;;;;;5.45;0.50;;;;;;;14.12;90.20;100057.88;4997489;28;20046;-67
2022/09/18 02:11:02;;;;;;;2.67;0.80;;;;;;;14.14;90.42;100067.16;4992584;28;20034;-67
2022/09/18 02:13:34;;;;;;;1.85;0.63;;;;;;;14.12;90.12;100063.31;4992471;28;20061;-67
2022/09/18 02:16:05;;;;;;;1.25;0.60;;;;;;;14.14;90.20;100064.47;4989810;28;20032;-67
2022/09/18 02:18:37;;;;;;;0.88;0.30;;;;;;;14.12;89.94;100061.38;5009610;28;20030;-67
2022/09/18 02:21:08;;;;;;;5.75;0.90;;;;;;;14.06;89.57;100060.22;4992640;28;20125;-67
2022/09/18 02:23:38;;;;;;;1.60;0.47;;;;;;;13.98;89.83;100066.81;4983086;28;20394;-67
2022/09/18 02:26:06;;;;;;;2.85;0.50;;;;;;;13.98;89.38;100053.28;5002732;28;20143;-67
2022/09/18 02:28:33;;;;;;;3.38;0.70;;;;;;;13.97;89.01;100054.47;4992881;28;20021;-67
2022/09/18 02:30:59;;;;;;;1.70;0.40;;;;;;;13.97;89.52;100056.41;4988306;28;20035;-67
2022/09/18 02:33:33;;;;;;;0.63;0.40;;;;;;;13.91;89.57;100053.31;5009928;28;20440;-67
2022/09/18 02:36:14;;;;;;;2.85;0.45;;;;;;;13.81;89.55;100056.81;4987555;28;20062;-67
2022/09/18 02:38:47;;;;;;;1.08;0.40;;;;;;;13.75;89.81;100054.91;5009335;28;20037;-67
2022/09/18 02:41:32;;;;;;;0.47;0.40;;;;;;;13.70;89.43;100058.78;5009677;28;20387;-67
2022/09/18 02:44:23;;;;;;;6.32;0.80;;;;;;;13.68;89.46;100055.72;4996490;28;20448;-67
2022/09/18 02:47:30;;;;;;;0.80;0.63;;;;;;;13.65;89.57;100048.34;5012538;28;20037;-67
2022/09/18 02:49:59;;;;;;;0.63;0.60;;;;;;;13.54;90.31;100061.91;5012742;28;20486;-67
2022/09/18 02:52:51;;;;;;;2.53;0.30;;;;;;;13.55;90.05;100051.84;4995936;28;20402;-66
2022/09/18 02:55:25;;;;;;;;;;;;;;;13.44;90.78;100057.28;4985589;28;20037;-67
2022/09/18 02:58:02;;;;;;;4.43;0.80;;;;;;;13.52;90.34;100042.59;5010706;28;20394;-67
2022/09/18 03:00:30;;;;;;;3.05;0.63;;;;;;;13.53;90.60;100036.00;4980312;28;20041;-67
2022/09/18 03:02:58;;;;;;;4.32;0.70;;;;;;;13.65;89.97;100040.22;4996544;28;20371;-67
2022/09/18 03:05:39;;;;;;;4.55;0.40;;;;;;;13.59;89.68;100036.38;4992448;28;20436;-67
2022/09/18 03:08:05;;;;;;;1.27;0.65;;;;;;;13.63;89.86;100026.31;4996182;28;20042;-67
2022/09/18 03:10:31;;;;;;;4.03;1.00;;;;;;;13.53;89.69;100033.31;4996153;28;20100;-67
2022/09/18 03:12:56;;;;;;;5.28;0.57;;;;;;;13.54;89.62;100031.38;5013214;28;20033;-67
2022/09/18 03:15:22;;;;;;;4.13;0.85;;;;;;;13.62;89.11;100032.91;5019796;28;20030;-67
2022/09/18 03:17:49;;;;;;;1.23;0.63;;;;;;;13.54;89.49;100034.84;5021827;28;20041;-67
2022/09/18 03:20:14;;;;;;;0.90;0.40;;;;;;;13.54;89.69;100025.97;4996469;28;20036;-67
2022/09/18 03:22:40;;;;;;;2.65;0.85;;;;;;;13.56;88.50;100031.75;5006720;28;20050;-67
2022/09/18 03:25:08;;;;;;;1.17;0.80;;;;;;;13.45;88.72;100026.34;5011522;28;20022;-67
2022/09/18 03:27:33;;;;;;;3.13;1.25;;;;;;;13.41;89.60;100030.25;4995928;28;20084;-68
2022/09/18 03:29:59;;;;;;;2.50;0.82;;;;;;;13.43;88.83;100030.63;4992512;28;20030;-67
2022/09/18 03:32:25;;;;;;;1.23;0.40;;;;;;;13.36;88.74;100038.72;5007512;28;20041;-67
2022/09/18 03:34:51;;;;;;;0.70;0.38;;;;;;;13.29;89.16;100033.34;5011824;28;20038;-67
2022/09/18 03:37:17;;;;;;;2.92;0.70;;;;;;;13.24;89.04;100041.84;5019282;28;20090;-67
2022/09/18 03:39:44;;;;;;;0.57;0.55;;;;;;;13.33;89.00;100037.59;5011374;28;20036;-67
2022/09/18 03:42:12;;;;;;;8.38;0.82;;;;;;;13.37;89.17;100040.28;5017735;28;20033;-67
2022/09/18 03:44:37;;;;;;;0.22;0.20;;;;;;;13.36;88.43;100022.50;5022284;28;20152;-67
2022/09/18 03:47:10;;;;;;;3.63;1.23;;;;;;;13.42;88.85;100020.97;4994202;28;20030;-67
2022/09/18 03:49:36;;;;;;;4.47;0.73;;;;;;;13.40;88.88;100025.97;4987857;28;20036;-67
2022/09/18 03:52:02;;;;;;;0.47;0.30;;;;;;;13.33;89.26;100015.19;5013131;28;20470;-67
2022/09/18 03:54:31;;;;;;;0.30;0.30;;;;;;;13.36;89.59;100012.47;4994911;28;20066;-67
2022/09/18 03:57:32;;;;;;;1.00;0.40;;;;;;;13.38;89.00;100020.97;4975920;28;20037;-67
2022/09/18 04:00:18;;;;;;;7.65;0.80;;;;;;;13.36;89.52;100022.50;5020895;28;20037;-67
2022/09/18 04:02:49;;;;;;;0.68;0.40;;;;;;;13.46;89.62;100016.31;4995833;28;20037;-67
2022/09/18 04:05:34;;;;;;;0.60;0.55;;;;;;;13.43;88.92;100020.56;4976479;28;20034;-67
2022/09/18 04:08:19;;;;;;;2.40;0.30;;;;;;;13.45;88.89;100020.94;5012691;28;20127;-67
2022/09/18 04:10:59;;;;;;;3.00;0.57;;;;;;;13.47;88.73;100015.16;5009620;28;20041;-67
2022/09/18 04:13:25;;;;;;;2.35;0.50;;;;;;;13.37;88.45;100016.72;5004054;28;20530;-67
2022/09/18 04:15:50;;;;;;;2.40;0.40;;;;;;;13.28;88.72;100015.56;4994442;28;20044;-67
2022/09/18 04:18:17;;;;;;;1.27;0.30;;;;;;;13.27;89.53;100031.03;5009910;28;20180;-67
2022/09/18 04:20:42;;;;;;;4.28;0.60;;;;;;;13.30;88.72;100029.47;4993218;28;20372;-67
2022/09/18 04:23:13;;;;;;;3.58;0.47;;;;;;;13.35;88.54;100037.97;4990871;28;20041;-67
2022/09/18 04:25:39;;;;;;;0.73;0.32;;;;;;;13.37;88.02;100034.88;5029907;28;20383;-67
2022/09/18 04:28:05;;;;;;;2.30;0.45;;;;;;;13.27;88.46;100032.97;4997345;28;20371;-67
2022/09/18 04:30:31;;;;;;;0.45;0.43;;;;;;;13.15;88.98;100033.34;4994888;28;20041;-67
2022/09/18 04:32:57;;;;;;;0.75;0.47;;;;;;;13.25;89.10;100038.75;5007625;28;20026;-67
2022/09/18 04:35:24;;;;;;;5.15;0.38;;;;;;;13.26;88.77;100034.88;5007680;28;20029;-67
2022/09/18 04:37:50;;;;;;;1.20;0.60;;;;;;;13.18;90.09;100027.94;5006012;28;20160;-67
2022/09/18 04:40:16;;;;;;;0.30;0.17;;;;;;;13.18;90.18;100038.00;5015318;28;20036;-67
2022/09/18 04:42:41;;;;;;;1.45;0.60;;;;;;;13.14;90.41;100042.63;5012206;28;20109;-67
2022/09/18 04:45:07;;;;;;;2.10;0.35;;;;;;;13.12;90.24;100044.94;4991295;28;20513;-67
2022/09/18 04:47:33;;;;;;;4.55;0.98;;;;;;;13.09;90.76;100035.66;5019668;28;20397;-66
2022/09/18 04:49:58;;;;;;;3.92;0.65;;;;;;;13.18;90.38;100043.41;5012368;28;20121;-67
2022/09/18 04:52:26;;;;;;;2.83;0.50;;;;;;;13.15;90.60;100041.44;5010988;28;20084;-66
2022/09/18 04:54:51;;;;;;;0.60;0.25;;;;;;;13.10;90.33;100034.53;4993017;28;20029;-66
2022/09/18 04:57:17;;;;;;;4.05;0.57;;;;;;;13.04;91.19;100035.28;5004985;28;20034;-67
2022/09/18 04:59:45;;;;;;;0.55;0.55;;;;;;;13.10;91.06;100044.56;5023084;28;20040;-67
2022/09/18 05:02:11;;;;;;;0.43;0.30;;;;;;;13.12;90.68;100020.63;4995511;28;20391;-67
2022/09/18 05:04:36;;;;;;;0.88;0.50;;;;;;;13.00;91.06;100026.38;5015727;28;20033;-67
2022/09/18 05:07:11;;;;;;;0.75;0.40;;;;;;;12.88;91.53;100032.94;4994485;28;20029;-67
2022/09/18 05:09:37;;;;;;;1.92;0.63;;;;;;;12.89;91.88;100031.75;5010144;28;20040;-67
2022/09/18 05:12:05;;;;;;;1.13;0.60;;;;;;;12.85;92.31;100025.59;4993250;28;20108;-67
2022/09/18 05:14:33;;;;;;;1.65;0.43;;;;;;;12.85;92.32;100031.00;4994015;28;20033;-66
2022/09/18 05:17:01;;;;;;;0.93;0.50;;;;;;;12.94;91.76;100028.69;5025785;28;20026;-67
2022/09/18 05:19:34;;;;;;;1.27;0.47;;;;;;;12.76;92.65;100035.22;4999721;28;20134;-67
2022/09/18 05:22:11;;;;;;;0.82;0.30;;;;;;;12.84;92.83;100037.56;4990480;28;20025;-67
2022/09/18 05:24:41;;;;;;;3.85;0.60;;;;;;;12.87;92.80;100033.31;4992383;28;20061;-67
2022/09/18 05:27:07;;;;;;;5.03;0.60;;;;;;;12.83;92.81;100027.13;5005026;28;20053;-67
2022/09/18 05:29:33;;;;;;;1.85;0.40;;;;;;;12.87;92.16;100026.00;5011062;28;20113;-67
2022/09/18 05:32:07;;;;;;;2.95;1.08;;;;;;;12.89;92.29;100026.34;4993524;28;20036;-67
2022/09/18 05:34:34;;;;;;;0.30;0.30;;;;;;;12.84;92.52;100037.56;5009084;28;20033;-67
2022/09/18 05:37:00;;;;;;;2.47;0.50;;;;;;;12.84;93.49;100042.19;4997927;28;20026;-67
2022/09/18 05:39:25;;;;;;;2.33;0.90;;;;;;;12.88;93.08;100046.44;4993612;28;20029;-67
2022/09/18 05:41:54;;;;;;;0.55;0.50;;;;;;;13.03;93.15;100047.22;5000667;28;20034;-67
2022/09/18 05:44:20;;;;;;;0.47;0.35;;;;;;;13.03;93.04;100053.44;5023895;28;20074;-66
2022/09/18 05:46:47;;;;;;;4.22;0.30;;;;;;;13.14;92.61;100054.19;4991426;28;20601;-66
2022/09/18 05:49:14;;;;;;;0.40;0.30;;;;;;;13.10;92.57;100052.66;4989990;28;20535;-66
2022/09/18 05:51:40;;;;;;;2.83;0.82;;;;;;;13.10;93.11;100050.75;5012628;28;20057;-66
2022/09/18 05:54:05;;;;;;;3.05;0.52;;;;;;;13.14;92.35;100056.16;4993135;28;20026;-66
2022/09/18 05:56:41;;;;;;;0.95;0.70;;;;;;;13.10;92.75;100053.44;4992507;28;20509;-66
2022/09/18 05:59:06;;;;;;;3.50;0.60;;;;;;;13.12;93.70;100058.47;5008496;28;20030;-66
2022/09/18 06:01:32;;;;;;;0.73;0.60;;;;;;;13.16;93.44;100049.16;4990530;28;20029;-66
2022/09/18 06:04:19;;;;;;;4.05;0.70;;;;;;;13.19;93.87;100053.03;5002082;28;20041;-66
2022/09/18 06:06:53;;;;;;;2.53;0.52;;;;;;;13.22;93.39;100042.22;4997258;28;20498;-66
2022/09/18 06:09:18;;;;;;;2.92;0.40;;;;;;;13.16;93.98;100043.00;4989221;28;20026;-66
2022/09/18 06:11:44;;;;;;;5.50;0.82;;;;;;;13.13;94.45;100046.47;5005595;28;20026;-66
2022/09/18 06:14:09;;;;;;;0.50;0.40;;;;;;;13.12;94.48;100047.66;5009506;28;20018;-66
2022/09/18 06:16:35;;;;;;;3.40;1.27;;;;;;;13.21;94.38;100048.81;4982871;28;20027;-66
2022/09/18 06:19:04;;;;;;;1.98;0.80;;;;;;;13.26;93.90;100055.72;5013641;28;20195;-66
2022/09/18 06:21:30;;;;;;;3.08;0.70;;;;;;;13.29;93.79;100060.38;4988016;28;20117;-66
2022/09/18 06:23:56;;;;;;;3.85;0.80;;;;;;;13.26;94.67;100063.84;4993040;28;20164;-67
2022/09/18 06:26:28;;;;;;;1.35;0.57;;;;;;;13.27;93.97;100068.13;4993307;28;20389;-66
2022/09/18 06:28:53;;;;;;;0.40;0.40;;;;;;;13.26;94.60;100053.03;5008588;28;20113;-66
2022/09/18 06:31:19;;;;;;;1.15;0.30;;;;;;;13.28;94.50;100059.59;4997503;28;20379;-66
2022/09/18 06:33:55;;;;;;;0.40;0.40;;;;;;;13.29;94.67;100052.28;4998255;28;20044;-67
2022/09/18 06:36:22;;;;;;;5.68;0.60;;;;;;;13.38;94.37;100052.66;4989745;28;20037;-67
2022/09/18 06:38:58;;;;;;;3.40;0.90;;;;;;;13.41;94.17;100054.59;5006373;28;20140;-67
2022/09/18 06:41:24;;;;;;;1.92;0.90;;;;;;;13.45;93.87;100052.66;5017060;28;20112;-66
2022/09/18 06:43:52;;;;;;;3.03;0.63;;;;;;;13.46;94.52;100048.78;4991956;28;20040;-67
2022/09/18 06:46:43;;;;;;;;;;;;;;;13.55;94.28;100054.53;5005513;28;20495;-67
2022/09/18 06:49:21;;;;;;;0.88;0.55;;;;;;;13.55;94.45;100049.13;4991922;28;19918;-67
2022/09/18 06:51:47;;;;;;;5.57;0.50;;;;;;;13.48;93.71;100043.75;5006384;28;20517;-66
2022/09/18 06:54:15;;;;;;;1.98;0.30;;;;;;;13.46;94.27;100048.78;4990240;28;20030;-67
2022/09/18 06:56:41;;;;;;;1.88;0.45;;;;;;;13.45;94.11;100060.75;5005302;28;20029;-66
2022/09/18 06:59:09;;;;;;;7.03;0.30;;;;;;;13.57;93.17;100054.94;5004758;28;20021;-66
2022/09/18 07:01:35;;;;;;;1.55;0.40;;;;;;;13.52;94.25;100061.53;5008914;28;20038;-67
2022/09/18 07:04:11;;;;;;;1.95;0.22;;;;;;;13.63;93.11;100058.78;5008244;28;20058;-66
2022/09/18 07:06:45;;;;;;;3.35;0.50;;;;;;;13.52;93.61;100052.63;5000704;28;20116;-66
2022/09/18 07:09:12;;;;;;;2.25;1.10;;;;;;;13.52;93.94;100068.88;4988957;28;20034;-67
2022/09/18 07:11:52;;;;;;;4.38;0.70;;;;;;;13.47;94.07;100051.09;5006271;28;20038;-66
2022/09/18 07:14:21;;;;;;;1.77;0.50;;;;;;;13.49;93.39;100043.34;4988460;28;20026;-66
2022/09/18 07:16:48;;;;;;;1.88;0.73;;;;;;;13.52;93.30;100044.50;4988016;28;20026;-67
2022/09/18 07:19:14;;;;;;;0.93;0.40;;;;;;;13.45;93.54;100047.25;4991798;28;20113;-67
2022/09/18 07:21:39;;;;;;;0.68;0.20;;;;;;;13.46;93.17;100040.66;5007040;28;20044;-67
2022/09/18 07:24:05;;;;;;;3.55;0.35;;;;;;;13.53;94.15;100044.13;5004736;28;20037;-66
2022/09/18 07:26:31;;;;;;;1.02;0.70;;;;;;;13.68;93.83;100055.72;5006386;28;20032;-67
2022/09/18 07:28:57;;;;;;;2.13;0.38;;;;;;;13.83;95.06;100053.72;4994459;28;20034;-67
2022/09/18 07:31:27;;;;;;;7.30;0.90;;;;;;;13.92;93.93;100046.72;4994331;28;20064;-67
2022/09/18 07:33:55;;;;;;;3.30;0.50;;;;;;;14.03;93.87;100044.00;4995434;28;20062;-67
2022/09/18 07:36:25;;;;;;;0.65;0.65;;;;;;;14.14;93.22;100045.50;4995608;28;20026;-67
2022/09/18 07:38:52;;;;;;;1.58;0.40;;;;;;;14.25;93.42;100038.09;4991940;28;20061;-67
2022/09/18 07:41:19;;;;;;;3.05;0.35;;;;;;;14.44;92.64;100048.47;4975316;28;20030;-67
2022/09/18 07:43:48;;;;;;;0.38;0.25;;;;;;;14.46;91.80;100050.78;4999904;28;20033;-67
2022/09/18 07:46:15;;;;;;;0.60;0.20;;;;;;;14.57;91.68;100056.94;4992527;28;20026;-67
2022/09/18 07:48:41;;;;;;;3.35;0.73;;;;;;;14.92;91.02;100064.84;4995594;28;20115;-67
2022/09/18 07:51:23;;;;;;;1.45;0.25;;;;;;;15.19;90.90;100065.03;5003550;28;20125;-67
2022/09/18 07:53:48;;;;;;;3.83;0.90;;;;;;;15.27;89.60;100059.13;4990539;28;20475;-67
2022/09/18 07:56:22;;;;;;;4.85;0.45;;;;;;;15.12;88.87;100054.22;4993565;28;20701;-67
2022/09/18 07:58:48;;;;;;;0.75;0.32;;;;;;;15.07;88.94;100047.28;4997449;28;20084;-67
2022/09/18 08:01:18;;;;;;;1.02;0.20;;;;;;;15.31;88.89;100054.44;5005434;28;20655;-67
2022/09/18 08:03:48;;;;;;;3.78;0.65;;;;;;;15.47;89.46;100053.16;5010304;28;20372;-67
2022/09/18 08:06:14;;;;;;;0.47;0.30;;;;;;;15.81;89.08;100056.72;5008061;28;20038;-67
2022/09/18 08:08:59;;;;;;;0.82;0.40;;;;;;;15.99;88.19;100051.84;4989726;28;20113;-67
2022/09/18 08:11:45;;;;;;;2.30;0.40;;;;;;;16.13;87.34;100052.47;5007056;28;20042;-67
2022/09/18 08:14:33;;;;;;;4.40;0.30;;;;;;;16.19;85.70;100050.84;4959793;28;20522;-67
2022/09/18 08:17:17;;;;;;;1.20;0.40;;;;;;;16.15;85.13;100047.38;5000060;28;20087;-67
2022/09/18 08:20:08;;;;;;;6.28;0.57;;;;;;;16.52;85.16;100041.13;4987663;28;20034;-67
2022/09/18 08:22:41;;;;;;;3.33;0.20;;;;;;;16.71;84.30;100043.16;4999863;28;20112;-67
2022/09/18 08:25:07;;;;;;;0.20;0.10;;;;;;;16.68;83.25;100057.59;4987280;28;20035;-67
2022/09/18 08:27:37;;;;;;;0.70;0.28;;;;;;;16.51;82.58;100046.97;4998961;28;20042;-67
2022/09/18 08:30:07;;;;;;;1.20;0.15;;;;;;;16.40;83.17;100049.00;4994062;28;20041;-67
2022/09/18 08:32:33;;;;;;;0.82;0.30;;;;;;;16.33;82.54;100043.66;5006530;28;20037;-67
2022/09/18 08:35:01;;;;;;;1.70;0.57;;;;;;;16.25;82.51;100043.00;4982399;28;20029;-67
2022/09/18 08:37:28;;;;;;;1.63;0.60;;;;;;;16.12;82.68;100045.47;4991912;28;20045;-67
2022/09/18 08:40:16;;;;;;;0.60;0.20;;;;;;;16.13;83.23;100043.53;4979912;28;20034;-67
2022/09/18 08:43:13;;;;;;;4.32;0.28;;;;;;;16.01;82.68;100047.56;5010830;28;20037;-68
2022/09/18 08:46:05;;;;;;;3.20;0.30;;;;;;;16.18;83.08;100032.22;4987998;28;20065;-67
2022/09/18 08:48:37;;;;;;;2.95;0.30;;;;;;;16.53;83.75;100034.47;5003583;28;20088;-67
2022/09/18 08:51:45;;;;;;;1.55;0.17;;;;;;;16.84;83.85;100032.50;5009185;28;20042;-67
2022/09/18 08:54:21;;;;;;;2.88;0.50;;;;;;;17.20;82.05;100038.13;4985738;28;20053;-67
2022/09/18 08:57:27;;;;;;;2.67;0.25;;;;;;;17.34;80.49;100032.44;4995398;28;20088;-67
2022/09/18 09:00:27;;;;;;;2.95;0.47;;;;;;;17.33;79.79;100022.72;4995909;28;20133;-67
2022/09/18 09:03:18;;;;;;;2.67;0.38;;;;;;;16.90;80.00;100033.53;4998780;28;20061;-67
2022/09/18 09:05:48;;;;;;;1.63;0.40;;;;;;;16.60;80.45;100037.13;4987659;28;20120;-67
2022/09/18 09:08:35;;;;;;;0.70;0.40;;;;;;;16.22;81.63;100022.84;5003917;28;20034;-67
2022/09/18 09:11:22;;;;;;;4.65;0.80;;;;;;;16.19;83.75;100026.38;5007799;28;20038;-67
2022/09/18 09:13:54;;;;;;;1.55;0.30;;;;;;;16.23;84.22;100029.81;4977320;28;20053;-66
2022/09/18 09:16:41;;;;;;;2.53;0.35;;;;;;;16.54;85.13;100035.25;4988671;28;20080;-66
2022/09/18 09:19:25;;;;;;;2.00;0.60;;;;;;;16.60;86.39;100028.19;4996923;28;20038;-66
2022/09/18 09:22:12;;;;;;;2.70;0.43;;;;;;;16.69;86.02;100031.16;4981970;28;20041;-66
2022/09/18 09:24:54;;;;;;;2.58;0.40;;;;;;;16.55;85.63;100015.06;4995777;28;20048;-66
2022/09/18 09:27:43;;;;;;;0.73;0.40;;;;;;;16.40;84.29;100014.44;4991966;28;20037;-66
2022/09/18 09:30:34;;;;;;;1.73;0.93;;;;;;;16.28;84.93;100015.78;5006193;28;20049;-66
2022/09/18 09:33:40;;;;;;;0.35;0.30;;;;;;;16.24;84.27;100011.56;4968325;28;20414;-66
2022/09/18 09:36:26;;;;;;;0.80;0.30;;;;;;;16.07;82.94;100015.28;5014032;28;20398;-67
2022/09/18 09:39:16;;;;;;;0.43;0.32;;;;;;;15.90;84.55;100014.31;5007191;23;20675;-68
2022/09/18 09:41:49;;;;;;;0.30;0.20;;;;;;;16.19;85.54;100018.22;5017813;28;20513;-68
2022/09/18 09:44:18;;;;;;;0.20;0.10;;;;;;;16.34;84.21;100026.94;5020856;28;20034;-68
2022/09/18 09:46:56;;;;;;;0.55;0.20;;;;;;;16.54;82.94;100025.16;4994415;28;20101;-70
2022/09/18 09:49:25;;;;;;;1.60;0.20;;;;;;;16.44;82.21;100017.13;5025681;28;20486;-70
2022/09/18 09:52:20;;;;;;;0.98;0.20;;;;;;;16.40;81.64;100009.00;5019704;28;20025;-68
2022/09/18 09:54:50;;;;;;;3.35;0.40;;;;;;;16.31;80.99;99987.03;5037605;28;20052;-69
2022/09/18 09:57:30;;;;;;;2.20;0.40;;;;;;;16.46;82.21;99993.78;5007111;28;20033;-67
2022/09/18 10:00:11;;;;;;;0.80;0.30;;;;;;;16.89;80.97;99993.94;5019732;28;20045;-70
2022/09/18 10:02:54;;;;;;;0.98;0.30;;;;;;;17.20;79.66;99989.91;5004102;28;20021;-70
2022/09/18 10:05:22;;;;;;;0.73;0.17;;;;;;;17.35;77.94;99996.66;5023508;28;20468;-70
2022/09/18 10:08:16;;;;;;;0.52;0.30;;;;;;;17.38;76.23;100003.22;5039029;28;20034;-70
2022/09/18 10:11:00;;;;;;;4.50;0.57;;;;;;;17.30;74.51;100008.03;5034473;28;20508;-70
2022/09/18 10:13:32;;;;;;;4.30;0.50;;;;;;;17.08;75.20;100012.28;5028353;28;20041;-70
2022/09/18 10:16:21;;;;;;;4.05;0.25;;;;;;;16.95;74.91;100001.22;5023154;28;20092;-70
2022/09/18 10:18:51;;;;;;;0.88;0.40;;;;;;;16.75;74.31;100013.19;5022961;28;20145;-70
2022/09/18 10:21:20;;;;;;;1.50;0.30;;;;;;;16.49;74.44;100003.09;5034784;28;20033;-70
2022/09/18 10:23:55;;;;;;;2.47;0.30;;;;;;;16.23;76.59;100010.03;5023509;28;20466;-70
2022/09/18 10:26:52;;;;;;;0.20;0.20;;;;;;;16.09;76.38;100008.25;5030345;28;20109;-70
2022/09/18 10:29:18;;;;;;;5.38;0.50;;;;;;;16.01;76.43;100014.97;5023654;28;20453;-70
2022/09/18 10:31:58;;;;;;;2.67;0.28;;;;;;;15.93;76.90;100012.75;5021889;28;20045;-70
2022/09/18 10:34:39;;;;;;;0.22;0.17;;;;;;;15.99;76.82;100019.25;5017611;28;20053;-69
2022/09/18 10:37:27;;;;;;;0.30;0.30;;;;;;;15.84;77.47;100018.66;4994231;28;20109;-69
2022/09/18 10:39:58;;;;;;;0.63;0.15;;;;;;;15.90;77.21;100005.41;5003242;28;20117;-69
2022/09/18 10:42:31;;;;;;;1.92;0.30;;;;;;;16.10;77.36;100004.34;5027545;28;20119;-70
2022/09/18 10:45:40;;;;;;;0.20;0.20;;;;;;;16.35;77.87;99998.63;5015871;28;20027;-69
2022/09/18 10:48:23;;;;;;;3.28;0.40;;;;;;;16.76;78.06;100001.16;5026002;28;20116;-69
2022/09/18 10:50:59;;;;;;;0.82;0.20;;;;;;;16.84;77.25;99981.56;5022443;28;20108;-69
2022/09/18 10:53:42;;;;;;;0.35;0.22;;;;;;;17.27;76.73;99989.00;5020989;28;20033;-69
2022/09/18 10:56:18;;;;;;;0.95;0.40;;;;;;;17.47;75.80;99987.88;5028352;28;20030;-69
2022/09/18 10:58:43;;;;;;;2.72;0.38;;;;;;;17.34;74.30;99991.63;5014273;28;20033;-71
2022/09/18 11:01:10;;;;;;;2.97;0.32;;;;;;;17.55;74.75;100000.19;5009320;28;20394;-70
2022/09/18 11:04:00;;;;;;;2.03;0.50;;;;;;;17.37;73.58;100002.44;5021614;28;20030;-70
2022/09/18 11:06:32;;;;;;;4.40;0.25;;;;;;;17.29;73.01;100014.63;5011776;28;20521;-68
2022/09/18 11:09:09;;;;;;;0.50;0.20;;;;;;;16.89;75.76;100021.13;5005589;28;20037;-71
2022/09/18 11:11:44;;;;;;;1.27;0.30;;;;;;;16.47;78.08;100024.47;5047722;28;20560;-70
2022/09/18 11:14:23;;;;;;;1.33;0.45;;;;;;;16.02;80.39;99999.44;5012131;28;20649;-67
2022/09/18 11:17:01;;;;;;;0.90;0.20;;;;;;;15.85;81.32;99990.31;5024630;28;20124;-69
2022/09/18 11:19:37;;;;;;;1.85;0.20;;;;;;;15.85;81.58;99987.59;5045185;28;20021;-71
2022/09/18 11:22:46;;;;;;;0.50;0.50;;;;;;;15.61;82.32;99982.47;5028293;28;20029;-70
2022/09/18 11:25:32;;;;;;;1.63;0.60;;;;;;;15.38;83.04;99975.72;5024802;28;20048;-71
2022/09/18 11:28:27;;;;;;;3.35;0.65;;;;;;;15.44;85.27;99972.56;5028611;28;20429;-69
2022/09/18 11:31:03;;;;;;;2.90;0.77;;;;;;;15.67;86.65;99949.03;5028197;28;20037;-70
2022/09/18 11:33:49;;;;;;;4.00;0.50;;;;;;;15.98;86.57;99953.31;5020145;28;20112;-72
2022/09/18 11:36:29;;;;;;;0.98;0.50;;;;;;;16.23;86.64;99953.75;5024466;28;20033;-72
2022/09/18 11:38:58;;;;;;;3.33;0.30;;;;;;;16.64;84.94;99941.91;5033268;28;20037;-72
2022/09/18 11:41:35;;;;;;;3.88;0.60;;;;;;;16.81;83.26;99949.78;5025083;28;20022;-70
2022/09/18 11:44:31;;;;;;;0.88;0.50;;;;;;;17.09;80.92;99951.25;5011898;28;20460;-72
2022/09/18 11:47:26;;;;;;;1.30;0.60;;;;;;;17.30;78.48;99947.38;5035390;28;20539;-73
2022/09/18 11:50:05;;;;;;;1.73;0.60;;;;;;;17.43;76.85;99959.16;5035509;28;20033;-73
2022/09/18 11:52:53;;;;;;;0.10;0.10;;;;;;;17.55;73.73;99956.63;5028947;28;20748;-72
2022/09/18 11:55:29;;;;;;;0.45;0.10;;;;;;;17.72;71.99;99957.47;5014717;28;20029;-71
2022/09/18 11:58:04;;;;;;;2.17;0.50;;;;;;;17.92;68.10;99961.69;5031051;28;20461;-68